Aurora, OR

4:56 AM PST on March 06, 2015 (GMT -0800)
Butteville | Change Station
CLOSE
Current Station
Personal Weather Station
Location: Aurora, OR
Elevation: 180 ft
Nearby Weather Stations

Elev 180 ft 45.24 °N, 122.85 °W | Updated 15 minutes ago

Clear
Clear
36.2 °F
Feels Like 36 °F
N
0.0
Wind Variable Wind from SSE
Gusts 0.0 mph

Today
High -- | Low -- °F
--% Chance of Precip.
Yesterday
High -- | Low -- °F
Precip. -- in
6:40 AM 6:05 PM
Waxing Gibbous, 99% visible
Pressure 30.38 in
Visibility 10.0 miles
Clouds Clear
Windchill 36 °F
Dew Point 31 °F
Humidity 82%
Rainfall in
Snow Depth Not available.
UV 0 out of 12
Pollen 5.10 out of 12
Air Quality Not available.
Flu Activity Not available.
METAR KUAO 061153Z AUTO 00000KT 10SM CLR 02/01 A3038 RMK AO2 SLP288 T00220011 10078 20022 50001

More Conditions Fewer Conditions

Pressure 30.38 in
Visibility 10.0 miles
Clouds Clear
Windchill 36 °F
Dew Point 31 °F
Humidity 82%
Rainfall in
Snow Depth Not available.
UV 0 out of 12
Pollen 5.10 out of 12
Air Quality Not available.
Flu Activity Not available.
METAR KUAO 061153Z AUTO 00000KT 10SM CLR 02/01 A3038 RMK AO2 SLP288 T00220011 10078 20022 50001

More Conditions Fewer Conditions

10-Day Weather Forecast

Almanac

Astronomy

Mar. 06, 2015 Rise Set
Actual Time
Civil Twilight
Nautical Twilight
Astronomical Twilight
Moon
Length of Visible Light
Length of Day
Tomorrow will be .
, % of the Moon is Illuminated

Today's Extremes

State Highs State Lows

Community

WunderPhotos

Upload Photos

1,803,246 photos uploaded!

WunderBlogs® & News

Nearby

Air Quality

  Air Quality AQ Index Pollutant
Not available.

Snow Depth

Station Depth Elevation

Earthquake Activity

City Distance Mag. Time & Date
Minimum magnitude displayed is 2.5.

Coastal Water Temperatures

Place Temperature

Nearby Weather Stations